createdAt,value
2022-10-23T00:00:56.724Z,0.10
2022-10-23T00:03:43.466Z,0.20
2022-10-23T00:06:31.463Z,0.20
2022-10-23T00:09:18.204Z,0.20
2022-10-23T00:12:05.639Z,0.07
2022-10-23T00:14:52.385Z,0.63
2022-10-23T00:17:39.209Z,0.33
2022-10-23T00:20:27.571Z,0.07
2022-10-23T00:23:14.341Z,0.00
2022-10-23T00:26:01.085Z,0.10
2022-10-23T00:28:47.853Z,0.10
2022-10-23T00:31:35.003Z,0.20
2022-10-23T00:34:22.080Z,0.07
2022-10-23T00:37:08.846Z,0.93
2022-10-23T00:39:55.604Z,0.20
2022-10-23T00:42:44.137Z,0.10
2022-10-23T00:45:39.712Z,0.10
2022-10-23T00:48:06.475Z,0.10
2022-10-23T00:50:33.482Z,0.20
2022-10-23T00:53:03.920Z,0.80
2022-10-23T00:55:32.577Z,0.20
2022-10-23T00:57:59.710Z,0.10
2022-10-23T01:00:40.335Z,0.47
2022-10-23T01:03:07.295Z,0.10
2022-10-23T01:05:50.170Z,0.10
2022-10-23T01:08:29.721Z,0.00
2022-10-23T01:11:10.020Z,0.10
2022-10-23T01:13:49.540Z,1.03
2022-10-23T01:16:31.772Z,0.30
2022-10-23T01:19:07.635Z,0.10
2022-10-23T01:21:43.500Z,0.00
2022-10-23T01:24:26.918Z,0.57
2022-10-23T01:27:14.791Z,1.13
2022-10-23T01:29:46.994Z,0.10
2022-10-23T01:32:19.971Z,0.10
2022-10-23T01:35:00.763Z,0.00
2022-10-23T01:37:34.452Z,0.10
2022-10-23T01:40:10.135Z,0.00
2022-10-23T01:42:43.923Z,0.00
2022-10-23T01:45:21.761Z,0.60
2022-10-23T01:47:50.756Z,0.10
2022-10-23T01:50:19.828Z,0.10
2022-10-23T01:52:49.178Z,0.10
2022-10-23T01:55:17.715Z,0.97
2022-10-23T01:57:46.219Z,0.00
2022-10-23T02:00:15.988Z,0.60
2022-10-23T02:02:53.344Z,0.00
2022-10-23T02:05:28.769Z,0.00
2022-10-23T02:07:58.010Z,0.63
2022-10-23T02:10:34.184Z,0.00
2022-10-23T02:13:33.237Z,0.17
2022-10-23T02:16:23.712Z,0.00
2022-10-23T02:18:59.108Z,0.00
2022-10-23T02:21:53.585Z,0.10
2022-10-23T02:24:28.493Z,0.00
2022-10-23T02:27:02.821Z,0.00
2022-10-23T02:29:35.303Z,0.00
2022-10-23T02:32:02.474Z,0.30
2022-10-23T02:34:29.386Z,0.00
2022-10-23T02:36:56.657Z,0.77
2022-10-23T02:39:27.674Z,0.07
2022-10-23T02:42:10.705Z,0.00
2022-10-23T02:44:43.832Z,0.17
2022-10-23T02:47:25.157Z,0.00
2022-10-23T02:50:02.616Z,0.07
2022-10-23T02:52:38.744Z,0.00
2022-10-23T02:55:05.734Z,0.00
2022-10-23T02:57:54.264Z,0.83
2022-10-23T03:00:22.942Z,0.00
2022-10-23T03:03:14.799Z,0.10
2022-10-23T03:05:44.925Z,0.10
2022-10-23T03:08:14.968Z,0.00
2022-10-23T03:10:42.580Z,0.73
2022-10-23T03:13:10.963Z,0.10
2022-10-23T03:15:42.354Z,1.43
2022-10-23T03:18:12.650Z,0.00
2022-10-23T03:20:41.147Z,0.50
2022-10-23T03:23:11.892Z,0.30
2022-10-23T03:25:38.728Z,0.00
2022-10-23T03:28:05.860Z,0.10
2022-10-23T03:30:34.885Z,0.00
2022-10-23T03:33:01.739Z,0.20
2022-10-23T03:35:28.515Z,0.07
2022-10-23T03:37:55.437Z,0.00
2022-10-23T03:40:24.348Z,0.00
2022-10-23T03:42:51.195Z,0.10
2022-10-23T03:45:19.496Z,0.10
2022-10-23T03:47:48.648Z,0.10
2022-10-23T03:50:15.594Z,0.03
2022-10-23T03:52:42.783Z,0.33
2022-10-23T03:55:12.503Z,0.70
2022-10-23T03:57:39.310Z,0.40
2022-10-23T04:00:07.136Z,0.20
2022-10-23T04:02:43.708Z,0.00
2022-10-23T04:05:11.529Z,0.57
2022-10-23T04:07:40.380Z,0.57
2022-10-23T04:10:07.621Z,0.43
2022-10-23T04:12:35.443Z,0.53
2022-10-23T04:15:02.257Z,0.00
2022-10-23T04:17:29.105Z,0.23
2022-10-23T04:19:56.189Z,0.47
2022-10-23T04:22:25.958Z,0.37
2022-10-23T04:24:54.693Z,2.33
2022-10-23T04:27:21.439Z,0.47
2022-10-23T04:29:49.386Z,0.20
2022-10-23T04:32:16.371Z,1.80
2022-10-23T04:34:44.295Z,0.20
2022-10-23T04:37:11.036Z,0.93
2022-10-23T04:39:38.391Z,1.03
2022-10-23T04:42:05.220Z,0.97
2022-10-23T04:44:31.978Z,2.00
2022-10-23T04:46:58.847Z,0.00
2022-10-23T04:49:25.713Z,0.10
2022-10-23T04:52:17.740Z,0.30
2022-10-23T04:55:05.153Z,0.80
2022-10-23T04:57:41.379Z,1.73
2022-10-23T05:00:12.515Z,0.50
2022-10-23T05:02:53.976Z,0.10
2022-10-23T05:05:21.844Z,1.63
2022-10-23T05:08:08.019Z,0.50
2022-10-23T05:10:49.744Z,0.43
2022-10-23T05:13:20.320Z,1.60
2022-10-23T05:15:48.594Z,1.00
2022-10-23T05:18:30.901Z,0.77
2022-10-23T05:21:04.257Z,0.37
2022-10-23T05:23:34.678Z,0.13
2022-10-23T05:26:03.544Z,0.27
2022-10-23T05:28:31.657Z,0.27
2022-10-23T05:31:01.049Z,0.17
2022-10-23T05:33:30.718Z,0.20
2022-10-23T05:35:58.787Z,0.53
2022-10-23T05:38:27.768Z,0.70
2022-10-23T05:40:55.204Z,0.43
2022-10-23T05:43:23.157Z,0.77
2022-10-23T05:45:55.655Z,0.30
2022-10-23T05:48:33.620Z,0.20
2022-10-23T05:51:25.084Z,0.83
2022-10-23T05:53:59.777Z,0.53
2022-10-23T05:56:32.288Z,0.70
2022-10-23T05:59:08.305Z,0.80
2022-10-23T06:01:49.047Z,1.43
2022-10-23T06:04:21.752Z,1.40
2022-10-23T06:07:04.334Z,1.03
2022-10-23T06:09:31.582Z,1.67
2022-10-23T06:11:58.833Z,0.30
2022-10-23T06:14:25.636Z,1.03
2022-10-23T06:16:53.767Z,0.73
2022-10-23T06:19:21.211Z,0.53
2022-10-23T06:21:52.185Z,1.03
2022-10-23T06:24:21.388Z,1.10
2022-10-23T06:26:59.592Z,1.43
2022-10-23T06:29:47.243Z,0.67
2022-10-23T06:32:14.111Z,1.33
2022-10-23T06:34:46.275Z,1.30
2022-10-23T06:37:13.080Z,0.03
2022-10-23T06:39:51.382Z,1.33
2022-10-23T06:42:33.738Z,0.20
2022-10-23T06:45:23.677Z,0.57
2022-10-23T06:47:53.395Z,1.77
2022-10-23T06:50:49.063Z,0.67
2022-10-23T06:53:20.299Z,0.47
2022-10-23T06:55:55.305Z,0.20
2022-10-23T06:58:22.804Z,0.80
2022-10-23T07:01:22.089Z,1.80
2022-10-23T07:03:49.017Z,1.77
2022-10-23T07:06:19.811Z,2.40
2022-10-23T07:08:46.713Z,0.83
2022-10-23T07:11:48.824Z,0.70
2022-10-23T07:14:15.699Z,0.83
2022-10-23T07:16:42.888Z,0.43
2022-10-23T07:19:30.322Z,0.60
2022-10-23T07:22:20.090Z,0.43
2022-10-23T07:25:29.293Z,1.30
2022-10-23T07:28:20.028Z,0.57
2022-10-23T07:31:17.288Z,0.27
2022-10-23T07:34:24.916Z,0.50
2022-10-23T07:37:29.484Z,0.40
2022-10-23T07:40:18.072Z,1.13
2022-10-23T07:43:05.229Z,1.60
2022-10-23T07:45:52.005Z,0.77
2022-10-23T07:48:50.992Z,0.50
2022-10-23T07:51:37.919Z,0.43
2022-10-23T07:54:24.832Z,1.43
2022-10-23T07:57:31.802Z,0.20
2022-10-23T08:00:30.032Z,2.00
2022-10-23T08:03:27.571Z,0.40
2022-10-23T08:06:15.270Z,1.50
2022-10-23T08:09:06.189Z,1.17
2022-10-23T08:11:58.036Z,0.30
2022-10-23T08:14:47.760Z,0.80
2022-10-23T08:17:34.685Z,2.67
2022-10-23T08:20:41.221Z,1.17
2022-10-23T08:23:30.140Z,0.30
2022-10-23T08:26:18.955Z,0.13
2022-10-23T08:29:05.651Z,1.10
2022-10-23T08:31:52.444Z,0.87
2022-10-23T08:34:45.244Z,1.00
2022-10-23T08:37:32.030Z,1.53
2022-10-23T08:40:18.925Z,0.87
2022-10-23T08:43:34.443Z,0.63
2022-10-23T08:46:39.400Z,0.10
2022-10-23T08:50:10.552Z,0.97
2022-10-23T08:53:29.619Z,0.20
2022-10-23T08:56:32.125Z,1.83
2022-10-23T08:59:52.428Z,0.83
2022-10-23T09:02:47.933Z,1.40
2022-10-23T09:05:56.063Z,1.50
2022-10-23T09:08:51.872Z,1.63
2022-10-23T09:12:23.275Z,0.70
2022-10-23T09:15:34.301Z,1.07
2022-10-23T09:18:31.574Z,0.73
2022-10-23T09:21:18.511Z,1.07
2022-10-23T09:24:05.214Z,1.20
2022-10-23T09:26:52.050Z,1.93
2022-10-23T09:29:41.448Z,1.40
2022-10-23T09:32:28.174Z,0.43
2022-10-23T09:35:15.396Z,1.97
2022-10-23T09:38:06.543Z,1.83
2022-10-23T09:40:58.987Z,0.63
2022-10-23T09:43:45.825Z,1.17
2022-10-23T09:46:32.768Z,1.27
2022-10-23T09:49:19.479Z,1.73
2022-10-23T09:52:32.298Z,0.77
2022-10-23T09:55:21.421Z,0.90
2022-10-23T09:58:08.139Z,0.73
2022-10-23T10:00:55.488Z,2.10
2022-10-23T10:03:58.238Z,0.87
2022-10-23T10:06:51.860Z,2.73
2022-10-23T10:09:38.567Z,1.13
2022-10-23T10:12:25.312Z,0.80
2022-10-23T10:15:53.589Z,0.57
2022-10-23T10:19:00.152Z,0.13
2022-10-23T10:22:28.378Z,0.80
2022-10-23T10:25:23.898Z,0.83
2022-10-23T10:28:22.302Z,4.70
2022-10-23T10:31:39.480Z,0.53
2022-10-23T10:34:30.943Z,1.93
2022-10-23T10:37:29.906Z,0.80
2022-10-23T10:40:44.696Z,0.87
2022-10-23T10:43:55.928Z,0.47
2022-10-23T10:46:48.919Z,1.80
2022-10-23T10:49:55.737Z,1.67
2022-10-23T10:53:16.948Z,0.63
2022-10-23T10:59:07.853Z,0.93
2022-10-23T11:02:03.144Z,2.67
2022-10-23T11:05:00.924Z,1.10
2022-10-23T11:07:57.168Z,1.13
2022-10-23T11:10:43.908Z,0.03
2022-10-23T11:13:57.080Z,1.93
2022-10-23T11:16:54.944Z,0.10
2022-10-23T11:20:31.026Z,0.57
2022-10-23T11:23:42.243Z,0.60
2022-10-23T11:27:00.304Z,0.60
2022-10-23T11:30:18.071Z,2.33
2022-10-23T11:33:27.848Z,2.37
2022-10-23T11:36:26.502Z,1.00
2022-10-23T11:39:13.261Z,0.40
2022-10-23T11:42:15.240Z,0.80
2022-10-23T11:45:09.931Z,2.20
2022-10-23T11:48:02.908Z,1.97
2022-10-23T11:51:09.164Z,1.60
2022-10-23T11:53:55.836Z,1.47
2022-10-23T11:56:26.580Z,0.83
2022-10-23T11:59:18.363Z,0.30
2022-10-23T12:02:06.195Z,0.67
2022-10-23T12:05:10.595Z,2.27
2022-10-23T12:08:00.426Z,1.07
2022-10-23T12:10:51.495Z,0.70
2022-10-23T12:13:56.652Z,0.60
2022-10-23T12:16:54.656Z,1.10
2022-10-23T12:19:43.677Z,0.40
2022-10-23T12:22:31.605Z,0.50
2022-10-23T12:25:35.568Z,0.07
2022-10-23T12:28:33.037Z,1.77
2022-10-23T12:31:29.099Z,0.87
2022-10-23T12:34:36.040Z,0.93
2022-10-23T12:37:28.693Z,0.10
2022-10-23T12:40:16.529Z,0.10
2022-10-23T12:43:11.721Z,0.73
2022-10-23T12:46:00.788Z,3.40
2022-10-23T12:48:47.568Z,0.10
2022-10-23T12:51:43.231Z,1.13
2022-10-23T12:54:38.522Z,0.80
2022-10-23T12:58:01.626Z,1.50
2022-10-23T13:00:48.330Z,0.33
2022-10-23T13:03:35.039Z,0.07
2022-10-23T13:06:23.500Z,0.63
2022-10-23T13:09:10.660Z,0.67
2022-10-23T13:12:10.463Z,0.30
2022-10-23T13:15:01.295Z,1.27
2022-10-23T13:18:05.185Z,0.57
2022-10-23T13:20:55.058Z,0.60
2022-10-23T13:23:52.431Z,1.37
2022-10-23T13:27:07.691Z,0.07
2022-10-23T13:29:54.612Z,2.17
2022-10-23T13:32:46.993Z,0.63
2022-10-23T13:35:42.012Z,0.63
2022-10-23T13:38:29.861Z,0.97
2022-10-23T13:41:19.084Z,1.83
2022-10-23T13:44:07.756Z,1.40
2022-10-23T13:46:54.474Z,0.20
2022-10-23T13:49:41.177Z,0.73
2022-10-23T13:52:32.698Z,0.80
2022-10-23T13:55:19.411Z,1.40
2022-10-23T13:58:06.096Z,0.63
2022-10-23T14:00:52.828Z,0.97
2022-10-23T14:03:39.613Z,0.10
2022-10-23T14:06:26.621Z,1.60
2022-10-23T14:09:13.399Z,0.10
2022-10-23T14:12:00.615Z,0.23
2022-10-23T14:14:47.405Z,3.10
2022-10-23T14:17:34.112Z,2.87
2022-10-23T14:20:24.434Z,0.30
2022-10-23T14:23:13.875Z,2.00
2022-10-23T14:26:00.741Z,0.27
2022-10-23T14:28:47.577Z,0.17
2022-10-23T14:31:37.472Z,0.50
2022-10-23T14:34:24.165Z,1.03
2022-10-23T14:37:10.879Z,1.63
2022-10-23T14:39:57.603Z,3.43
2022-10-23T14:42:44.652Z,1.73
2022-10-23T14:45:31.694Z,0.73
2022-10-23T14:48:18.476Z,1.97
2022-10-23T14:51:08.361Z,1.10
2022-10-23T14:53:56.444Z,3.13
2022-10-23T14:56:45.969Z,1.40
2022-10-23T14:59:32.771Z,2.07
2022-10-23T15:02:19.547Z,0.90
2022-10-23T15:05:06.324Z,2.70
2022-10-23T15:07:53.019Z,2.73
2022-10-23T15:10:39.744Z,1.30
2022-10-23T15:13:26.649Z,1.13
2022-10-23T15:16:28.263Z,1.77
2022-10-23T15:19:18.207Z,0.20
2022-10-23T15:22:06.956Z,2.33
2022-10-23T15:24:53.709Z,2.13
2022-10-23T15:27:40.635Z,0.60
2022-10-23T15:30:27.969Z,2.37
2022-10-23T15:33:19.122Z,0.90
2022-10-23T15:36:06.856Z,1.73
2022-10-23T15:38:53.603Z,0.47
2022-10-23T15:41:39.600Z,1.77
2022-10-23T15:44:07.524Z,3.30
2022-10-23T15:46:34.818Z,0.83
2022-10-23T15:49:01.898Z,2.33
2022-10-23T15:51:28.712Z,1.27
2022-10-23T15:53:57.114Z,1.73
2022-10-23T15:56:24.762Z,1.20
2022-10-23T15:58:51.767Z,2.50
2022-10-23T16:01:18.872Z,5.47
2022-10-23T16:03:46.067Z,5.27
2022-10-23T16:06:16.422Z,5.30
2022-10-23T16:08:46.170Z,3.70
2022-10-23T16:11:30.876Z,4.47
2022-10-23T16:13:59.144Z,2.97
2022-10-23T16:16:27.745Z,3.83
2022-10-23T16:18:55.013Z,4.03
2022-10-23T16:21:25.842Z,3.53
2022-10-23T16:23:54.103Z,7.30
2022-10-23T16:26:22.369Z,3.80
2022-10-23T16:28:53.873Z,3.13
2022-10-23T16:31:21.996Z,5.57
2022-10-23T16:33:49.473Z,2.63
2022-10-23T16:36:17.505Z,4.03
2022-10-23T16:39:08.659Z,3.30
2022-10-23T16:41:54.081Z,2.17
2022-10-23T16:44:23.304Z,3.77
2022-10-23T16:46:58.112Z,3.83
2022-10-23T16:49:25.094Z,4.30
2022-10-23T16:51:51.863Z,3.93
2022-10-23T16:54:38.609Z,5.97
2022-10-23T16:57:25.390Z,3.63
2022-10-23T17:00:12.072Z,1.03
2022-10-23T17:02:58.784Z,1.93
2022-10-23T17:05:45.477Z,5.83
2022-10-23T17:08:32.189Z,1.50
2022-10-23T17:11:28.899Z,4.00
2022-10-23T17:14:17.320Z,8.03
2022-10-23T17:16:47.857Z,5.00
2022-10-23T17:19:39.798Z,3.33
2022-10-23T17:22:24.343Z,3.93
2022-10-23T17:25:11.050Z,3.17
2022-10-23T17:27:57.749Z,3.97
2022-10-23T17:30:44.500Z,1.50
2022-10-23T17:33:31.230Z,2.97
2022-10-23T17:36:22.192Z,6.67
2022-10-23T17:39:09.513Z,4.27
2022-10-23T17:41:57.184Z,4.17
2022-10-23T17:44:43.978Z,3.33
2022-10-23T17:47:30.679Z,5.87
2022-10-23T17:50:17.362Z,3.50
2022-10-23T17:53:04.057Z,4.47
2022-10-23T17:55:51.107Z,1.13
2022-10-23T17:58:37.807Z,2.87
2022-10-23T18:01:27.022Z,4.33
2022-10-23T18:04:15.212Z,4.20
2022-10-23T18:07:05.141Z,5.23
2022-10-23T18:09:51.832Z,6.43
2022-10-23T18:12:38.790Z,5.87
2022-10-23T18:15:26.129Z,2.87
2022-10-23T18:18:12.817Z,2.83
2022-10-23T18:21:00.265Z,5.43
2022-10-23T18:23:48.936Z,2.47
2022-10-23T18:26:47.190Z,2.97
2022-10-23T18:29:35.643Z,2.93
2022-10-23T18:32:22.392Z,4.27
2022-10-23T18:35:09.294Z,6.80
2022-10-23T18:37:56.015Z,7.50
2022-10-23T18:40:42.732Z,4.90
2022-10-23T18:43:43.285Z,7.13
2022-10-23T18:46:35.168Z,4.93
2022-10-23T18:49:22.455Z,9.33
2022-10-23T18:52:10.023Z,7.23
2022-10-23T18:54:56.789Z,5.07
2022-10-23T18:57:44.196Z,6.13
2022-10-23T19:00:31.991Z,9.60
2022-10-23T19:03:18.703Z,7.17
2022-10-23T19:06:06.754Z,4.47
2022-10-23T19:08:57.095Z,3.80
2022-10-23T19:11:45.712Z,5.17
2022-10-23T19:14:32.909Z,4.30
2022-10-23T19:17:33.710Z,5.23
2022-10-23T19:20:29.489Z,3.63
2022-10-23T19:23:17.128Z,5.33
2022-10-23T19:26:05.075Z,2.23
2022-10-23T19:31:45.792Z,2.97
2022-10-23T19:34:32.510Z,4.03
2022-10-23T19:37:19.268Z,3.97
2022-10-23T19:40:05.984Z,2.97
2022-10-23T19:42:57.587Z,3.33
2022-10-23T19:45:44.292Z,2.97
2022-10-23T19:48:31.096Z,3.43
2022-10-23T19:51:17.923Z,2.50
2022-10-23T19:54:04.636Z,3.60
2022-10-23T19:56:51.476Z,2.97
2022-10-23T19:59:38.592Z,5.23
2022-10-23T20:02:25.578Z,7.50
2022-10-23T20:05:12.593Z,9.97
2022-10-23T20:07:59.376Z,6.77
2022-10-23T20:10:46.163Z,6.17
2022-10-23T20:13:32.911Z,6.53
2022-10-23T20:16:19.614Z,4.83
2022-10-23T20:19:07.282Z,4.63
2022-10-23T20:21:59.243Z,3.27
2022-10-23T20:24:46.424Z,2.63
2022-10-23T20:30:24.133Z,1.70
2022-10-23T20:33:10.867Z,1.33
2022-10-23T20:36:01.889Z,1.97
2022-10-23T20:38:48.588Z,2.60
2022-10-23T20:41:35.325Z,1.27
2022-10-23T20:44:22.241Z,4.60
2022-10-23T20:47:09.617Z,0.80
2022-10-23T20:49:56.405Z,3.53
2022-10-23T20:52:43.142Z,1.17
2022-10-23T20:55:30.061Z,2.97
2022-10-23T20:58:16.828Z,1.07
2022-10-23T21:01:03.629Z,1.90
2022-10-23T21:03:50.444Z,1.07
2022-10-23T21:06:57.525Z,0.60
2022-10-23T21:09:45.413Z,3.13
2022-10-23T21:12:32.403Z,3.43
2022-10-23T21:15:19.144Z,0.53
2022-10-23T21:18:14.567Z,0.83
2022-10-23T21:21:12.768Z,0.77
2022-10-23T21:23:59.619Z,1.10
2022-10-23T21:26:48.331Z,0.90
2022-10-23T21:29:35.381Z,0.60
2022-10-23T21:32:22.154Z,0.57
2022-10-23T21:35:08.867Z,1.23
2022-10-23T21:37:55.586Z,1.20
2022-10-23T21:40:42.861Z,0.23
2022-10-23T21:43:29.580Z,1.37
2022-10-23T21:46:16.269Z,0.53
2022-10-23T21:49:03.396Z,4.03
2022-10-23T21:51:56.679Z,0.40
2022-10-23T21:54:43.474Z,0.73
2022-10-23T21:57:34.433Z,0.70
2022-10-23T22:00:21.152Z,1.90
2022-10-23T22:03:08.235Z,0.50
2022-10-23T22:05:54.973Z,2.90
2022-10-23T22:08:41.699Z,0.53
2022-10-23T22:11:28.527Z,1.60
2022-10-23T22:14:15.677Z,1.43
2022-10-23T22:17:02.420Z,0.37
2022-10-23T22:19:49.179Z,0.57
2022-10-23T22:22:35.876Z,1.80
2022-10-23T22:25:22.635Z,0.30
2022-10-23T22:28:09.359Z,4.23
2022-10-23T22:30:56.838Z,0.77
2022-10-23T22:33:43.548Z,1.40
2022-10-23T22:36:30.353Z,0.77
2022-10-23T22:39:17.116Z,0.10
2022-10-23T22:42:03.851Z,2.73
2022-10-23T22:44:50.569Z,0.53
2022-10-23T22:47:37.221Z,0.10
2022-10-23T22:50:24.253Z,0.90
2022-10-23T22:53:11.861Z,1.90
2022-10-23T22:56:02.628Z,0.63
2022-10-23T22:58:49.340Z,2.37
2022-10-23T23:01:41.737Z,0.30
2022-10-23T23:04:43.806Z,0.20
2022-10-23T23:07:32.536Z,0.40
2022-10-23T23:10:19.226Z,0.00
2022-10-23T23:13:05.925Z,1.00
2022-10-23T23:15:53.091Z,0.37
2022-10-23T23:18:40.138Z,0.30
2022-10-23T23:21:26.842Z,0.30
2022-10-23T23:24:14.151Z,0.57
2022-10-23T23:27:01.018Z,0.40
2022-10-23T23:29:47.732Z,0.43
2022-10-23T23:32:34.472Z,0.10
2022-10-23T23:35:21.906Z,0.20
2022-10-23T23:38:08.662Z,0.47
2022-10-23T23:40:55.532Z,1.17
2022-10-23T23:48:50.464Z,0.20
2022-10-23T23:51:40.122Z,1.20
2022-10-23T23:54:26.856Z,0.60
2022-10-23T23:57:16.592Z,0.43
